Wayland, Iowa
Current Conditions -  °F | °C
As of 5:55 PM on Sunday 21 Dec 2014 (Local Time) from KAWG Reporting Station
Overcast Overcast  
Wind Chill: 35°   Ceiling: 2000
Heat Index: 41°   Visibility: 10mi
Dew Point: 41°   Wind: 10mph
Humidity: 100%   Direction: 150°SSE
Pressure: 29.91"   Gusts: NA
Location:  41.15°N, 91.66°W
Report Text: KAWG 212355Z AUTO 15009KT 10SM OVC020 05/05 A2991 RMK AO2
Loading
Personal Weather Stations






























Interactive Weather Map New forecast layout! Learn more

10-Day Weather Forecast

Advertisements
Track Severe Weather on mobile